Time;durP1;ratioP1;P1;durP2;ratioP2;P2;SDS_P1;SDS_P2;PMS_P1;PMS_P2;Temp;Humidity;BMP_temperature;BMP_pressure;BME280_temperature;BME280_humidity;BME280_pressure;Samples;Min_cycle;Max_cycle;Signal;HPM_P1;HPM_P2
2022/05/25 00:00:59;;;;;;;3.90;2.40;;;17.40;99.90;;;;;;4986145;28;20479;-71
2022/05/25 00:03:25;;;;;;;5.60;2.63;;;17.30;99.90;;;;;;4986153;28;20397;-71
2022/05/25 00:05:51;;;;;;;2.70;2.27;;;17.20;99.90;;;;;;4986453;28;20452;-70
2022/05/25 00:08:17;;;;;;;3.20;2.27;;;17.10;99.90;;;;;;4984681;28;20464;-69
2022/05/25 00:10:43;;;;;;;2.50;2.20;;;17.10;99.90;;;;;;4986049;28;20257;-70
2022/05/25 00:13:09;;;;;;;2.80;2.50;;;17.10;99.90;;;;;;4983378;28;20533;-70
2022/05/25 00:15:35;;;;;;;2.20;2.00;;;17.10;99.90;;;;;;4965341;28;20928;-71
2022/05/25 00:18:01;;;;;;;4.83;2.00;;;16.90;99.90;;;;;;4987389;28;20567;-70
2022/05/25 00:20:27;;;;;;;2.67;2.10;;;17.00;99.90;;;;;;4986528;28;20213;-71
2022/05/25 00:22:55;;;;;;;6.53;2.13;;;17.00;99.90;;;;;;4983209;28;20456;-71
2022/05/25 00:25:30;;;;;;;2.40;2.20;;;16.90;99.90;;;;;;4984855;28;20312;-70
2022/05/25 00:28:01;;;;;;;2.43;2.23;;;16.90;99.90;;;;;;4985739;28;20440;-71
2022/05/25 00:30:27;;;;;;;2.10;1.90;;;16.90;99.90;;;;;;4967869;28;20492;-71
2022/05/25 00:32:57;;;;;;;2.30;2.00;;;16.90;99.90;;;;;;4985068;28;20917;-71
2022/05/25 00:35:25;;;;;;;6.30;2.70;;;16.90;99.90;;;;;;4987057;28;20929;-71
2022/05/25 00:37:51;;;;;;;4.13;2.43;;;16.90;99.90;;;;;;4981875;28;20532;-70
2022/05/25 00:40:38;;;;;;;3.07;2.53;;;16.90;99.90;;;;;;4983656;28;21059;-70
2022/05/25 00:43:04;;;;;;;3.80;2.40;;;16.90;99.90;;;;;;4984021;28;20194;-69
2022/05/25 00:45:36;;;;;;;3.33;2.13;;;16.90;99.90;;;;;;4983354;28;20519;-68
2022/05/25 00:48:04;;;;;;;2.40;2.20;;;16.90;99.90;;;;;;4984439;28;20200;-70
2022/05/25 00:51:11;;;;;;;4.40;2.30;;;16.90;99.90;;;;;;4970794;28;20464;-70
2022/05/25 00:53:16;;;;;;;3.00;2.77;;;17.00;99.90;;;;;;4984933;28;20779;-70
2022/05/25 00:55:42;;;;;;;2.80;2.60;;;17.00;99.90;;;;;;4985194;28;20456;-70
2022/05/25 00:58:07;;;;;;;2.30;2.10;;;16.90;99.90;;;;;;4982147;28;20519;-69
2022/05/25 01:00:33;;;;;;;2.63;2.30;;;16.80;99.90;;;;;;4981456;28;20621;-69
2022/05/25 01:03:10;;;;;;;2.20;2.00;;;16.80;99.90;;;;;;4984609;28;20188;-70
2022/05/25 01:06:05;;;;;;;4.73;2.07;;;16.80;99.90;;;;;;4984800;28;20178;-72
2022/05/25 01:08:50;;;;;;;5.20;3.40;;;16.60;99.90;;;;;;4985560;28;20464;-70
2022/05/25 01:11:15;;;;;;;4.10;2.97;;;16.50;99.90;;;;;;4987985;28;21192;-71
2022/05/25 01:13:59;;;;;;;5.90;2.40;;;16.50;99.90;;;;;;4969485;28;20511;-71
2022/05/25 01:16:24;;;;;;;5.30;2.37;;;16.50;99.90;;;;;;4983221;28;20717;-71
2022/05/25 01:19:02;;;;;;;4.67;2.40;;;16.60;99.90;;;;;;4987802;28;20469;-71
2022/05/25 01:21:47;;;;;;;4.50;2.60;;;16.70;99.90;;;;;;4981763;28;20240;-71
2022/05/25 01:24:48;;;;;;;4.87;3.13;;;16.70;99.90;;;;;;4982437;28;20818;-71
2022/05/25 01:27:35;;;;;;;2.90;2.20;;;16.80;99.90;;;;;;4984469;28;21050;-71
2022/05/25 01:30:14;;;;;;;2.47;2.27;;;16.50;99.90;;;;;;4984768;28;20487;-71
2022/05/25 01:33:08;;;;;;;3.07;2.40;;;16.60;99.90;;;;;;4983702;28;20444;-71
2022/05/25 01:36:00;;;;;;;3.30;1.87;;;16.60;99.90;;;;;;4983039;28;20447;-71
2022/05/25 01:38:40;;;;;;;3.57;2.10;;;16.30;99.90;;;;;;4984860;28;20479;-70
2022/05/25 01:41:17;;;;;;;2.83;2.27;;;16.20;99.90;;;;;;4984883;28;20471;-71
2022/05/25 01:43:54;;;;;;;2.30;2.07;;;16.30;99.90;;;;;;4981248;28;20823;-71
2022/05/25 01:46:27;;;;;;;3.13;1.87;;;16.40;99.90;;;;;;4967206;28;20440;-71
2022/05/25 01:48:55;;;;;;;3.90;2.30;;;16.50;99.90;;;;;;4965637;28;21147;-71
2022/05/25 01:51:29;;;;;;;2.30;2.10;;;16.60;99.90;;;;;;4982792;28;20452;-71
2022/05/25 01:53:59;;;;;;;3.57;2.00;;;16.60;99.90;;;;;;4981759;28;20460;-71
2022/05/25 01:56:30;;;;;;;4.73;2.20;;;16.50;99.90;;;;;;4982914;28;20468;-71
2022/05/25 01:59:00;;;;;;;2.47;2.27;;;16.50;99.90;;;;;;4983243;28;20460;-71
2022/05/25 02:01:25;;;;;;;4.00;2.17;;;16.60;99.90;;;;;;4983659;28;20457;-71
2022/05/25 02:07:17;;;;;;;2.23;2.00;;;16.60;99.90;;;;;;4982557;28;20670;-70
2022/05/25 02:10:21;;;;;;;2.30;2.10;;;16.60;99.90;;;;;;4982297;28;20571;-70
2022/05/25 02:13:03;;;;;;;2.23;2.03;;;16.50;99.90;;;;;;4981985;28;20812;-70
2022/05/25 02:15:40;;;;;;;4.23;2.07;;;16.50;99.90;;;;;;4988208;28;20503;-70
2022/05/25 02:18:25;;;;;;;2.93;2.10;;;16.40;99.90;;;;;;4989384;28;20560;-70
2022/05/25 02:21:04;;;;;;;2.83;2.00;;;16.30;99.90;;;;;;4986001;28;20490;-69
2022/05/25 02:23:40;;;;;;;3.23;2.00;;;16.30;99.90;;;;;;4969961;28;20443;-70
2022/05/25 02:26:18;;;;;;;2.40;2.20;;;16.40;99.90;;;;;;4970529;28;20428;-70
2022/05/25 02:28:51;;;;;;;2.10;1.90;;;16.40;99.90;;;;;;4986737;28;20460;-69
2022/05/25 02:31:21;;;;;;;2.37;2.07;;;16.40;99.90;;;;;;4986980;28;20576;-70
2022/05/25 02:33:52;;;;;;;2.30;2.00;;;16.30;99.90;;;;;;4986986;28;20444;-70
2022/05/25 02:36:19;;;;;;;5.50;2.13;;;16.20;99.90;;;;;;4986906;28;20452;-71
2022/05/25 02:38:45;;;;;;;3.07;1.90;;;16.30;99.90;;;;;;4987004;28;20619;-70
2022/05/25 02:41:26;;;;;;;2.33;2.10;;;16.20;99.90;;;;;;4983745;28;20615;-70
2022/05/25 02:43:52;;;;;;;2.40;2.10;;;16.20;99.90;;;;;;4985398;28;20479;-70
2022/05/25 02:46:18;;;;;;;3.30;2.00;;;16.30;99.90;;;;;;4986662;28;20480;-71
2022/05/25 02:48:44;;;;;;;3.17;2.00;;;16.20;99.90;;;;;;4986925;28;20492;-71
2022/05/25 02:51:09;;;;;;;2.30;2.03;;;16.20;99.90;;;;;;4984680;28;20272;-70
2022/05/25 02:53:35;;;;;;;2.13;1.93;;;16.10;99.90;;;;;;4969776;28;20707;-70
2022/05/25 02:56:01;;;;;;;2.70;2.27;;;16.10;99.90;;;;;;4985757;28;20186;-71
2022/05/25 02:58:27;;;;;;;3.10;2.20;;;16.10;99.90;;;;;;4987264;28;20316;-70
2022/05/25 03:00:54;;;;;;;3.80;1.90;;;16.20;99.90;;;;;;4985547;28;20563;-71
2022/05/25 03:03:20;;;;;;;3.60;1.83;;;16.20;99.90;;;;;;4984001;28;20178;-72
2022/05/25 03:05:45;;;;;;;3.30;2.20;;;16.10;99.90;;;;;;4985987;28;20808;-71
2022/05/25 03:08:11;;;;;;;2.93;2.40;;;15.90;99.90;;;;;;4984857;28;20190;-70
2022/05/25 03:10:37;;;;;;;3.03;2.50;;;15.90;99.90;;;;;;4986209;28;20448;-71
2022/05/25 03:13:07;;;;;;;4.70;2.37;;;16.10;99.90;;;;;;4984342;28;20627;-71
2022/05/25 03:15:33;;;;;;;3.27;2.80;;;16.10;99.90;;;;;;4987205;28;20944;-70
2022/05/25 03:17:58;;;;;;;2.77;2.30;;;16.00;99.90;;;;;;4986797;28;20532;-70
2022/05/25 03:20:24;;;;;;;2.40;2.20;;;15.90;99.90;;;;;;4986845;28;20472;-70
2022/05/25 03:22:50;;;;;;;4.10;2.40;;;15.80;99.90;;;;;;4985175;28;20209;-70
2022/05/25 03:25:15;;;;;;;2.50;2.30;;;15.80;99.90;;;;;;4985185;28;20174;-71
2022/05/25 03:27:43;;;;;;;2.83;2.50;;;15.80;99.90;;;;;;4985771;28;20194;-69
2022/05/25 03:30:10;;;;;;;2.27;2.07;;;15.90;99.90;;;;;;4984758;28;20216;-69
2022/05/25 03:32:36;;;;;;;4.27;2.07;;;15.80;99.90;;;;;;4986471;28;20464;-69
2022/05/25 03:35:02;;;;;;;3.03;2.20;;;15.80;99.90;;;;;;4985391;28;20432;-69
2022/05/25 03:37:30;;;;;;;4.03;2.10;;;15.90;99.90;;;;;;4984543;28;20530;-70
2022/05/25 03:39:56;;;;;;;3.60;2.40;;;15.90;99.90;;;;;;4987325;28;20566;-70
2022/05/25 03:42:22;;;;;;;2.50;2.20;;;15.70;99.90;;;;;;4987202;28;20461;-71
2022/05/25 03:44:48;;;;;;;2.27;2.07;;;15.80;99.90;;;;;;4984723;28;20186;-71
2022/05/25 03:47:15;;;;;;;3.20;2.60;;;15.90;99.90;;;;;;4966827;28;20858;-71
2022/05/25 03:49:41;;;;;;;4.30;2.50;;;15.90;99.90;;;;;;4986133;28;20482;-70
2022/05/25 03:52:07;;;;;;;2.40;2.20;;;15.90;99.90;;;;;;4984010;28;20448;-70
2022/05/25 03:54:32;;;;;;;3.57;2.50;;;15.80;99.90;;;;;;4985071;28;20441;-70
2022/05/25 03:56:58;;;;;;;3.90;2.40;;;15.90;99.90;;;;;;4985490;28;20449;-71
2022/05/25 03:59:24;;;;;;;4.87;2.67;;;15.90;99.90;;;;;;4986516;28;20214;-69
2022/05/25 04:01:50;;;;;;;2.63;2.30;;;15.80;99.90;;;;;;4985453;28;20229;-70
2022/05/25 04:04:16;;;;;;;3.17;2.80;;;15.70;99.90;;;;;;4983320;28;20719;-70
2022/05/25 04:06:43;;;;;;;3.00;2.50;;;15.60;99.90;;;;;;4987750;28;20429;-71
2022/05/25 04:09:10;;;;;;;3.23;2.50;;;15.60;99.90;;;;;;4987049;28;20457;-71
2022/05/25 04:11:37;;;;;;;4.30;2.77;;;15.60;99.90;;;;;;4987852;28;20448;-71
2022/05/25 04:14:02;;;;;;;5.90;2.73;;;15.60;99.90;;;;;;4985623;28;20465;-70
2022/05/25 04:16:28;;;;;;;2.77;2.30;;;15.60;99.90;;;;;;4985549;28;20532;-70
2022/05/25 04:18:54;;;;;;;2.30;2.10;;;15.50;99.90;;;;;;4985387;28;20272;-71
2022/05/25 04:21:20;;;;;;;2.40;2.20;;;15.40;99.90;;;;;;4988120;28;20471;-71
2022/05/25 04:23:46;;;;;;;2.80;2.10;;;15.40;99.90;;;;;;4984845;28;20268;-71
2022/05/25 04:26:12;;;;;;;3.50;2.20;;;15.40;99.90;;;;;;4984856;28;20179;-71
2022/05/25 04:28:37;;;;;;;2.30;2.10;;;15.20;99.90;;;;;;4986157;28;20461;-71
2022/05/25 04:31:03;;;;;;;3.27;2.10;;;15.20;99.90;;;;;;4983629;28;20449;-71
2022/05/25 04:33:30;;;;;;;4.97;2.50;;;15.30;99.90;;;;;;4984307;28;20265;-71
2022/05/25 04:35:57;;;;;;;3.90;2.00;;;15.30;99.90;;;;;;4962647;28;20452;-71
2022/05/25 04:38:23;;;;;;;2.90;2.30;;;15.50;99.90;;;;;;4966756;28;20445;-71
2022/05/25 04:40:49;;;;;;;3.13;2.43;;;15.40;99.90;;;;;;4987732;28;21039;-71
2022/05/25 04:43:21;;;;;;;2.97;2.30;;;15.20;99.90;;;;;;4986370;28;20186;-70
2022/05/25 04:45:49;;;;;;;2.70;2.50;;;15.30;99.90;;;;;;4986070;28;20584;-71
2022/05/25 04:48:16;;;;;;;3.23;2.20;;;15.30;99.90;;;;;;4986844;28;20441;-70
2022/05/25 04:50:44;;;;;;;2.90;2.40;;;15.30;99.90;;;;;;4987028;28;20447;-70
2022/05/25 04:53:13;;;;;;;2.77;2.10;;;15.30;99.90;;;;;;4988229;28;20428;-71
2022/05/25 04:58:24;;;;;;;6.77;2.17;;;15.40;99.90;;;;;;4987225;28;20983;-71
2022/05/25 05:00:50;;;;;;;2.40;2.20;;;15.40;99.90;;;;;;4985293;28;20465;-71
2022/05/25 05:03:17;;;;;;;3.37;2.10;;;15.40;99.90;;;;;;4986960;28;20948;-71
2022/05/25 05:05:43;;;;;;;2.67;2.47;;;15.40;99.90;;;;;;4986495;28;20429;-70
2022/05/25 05:08:09;;;;;;;6.33;2.13;;;15.30;99.90;;;;;;4987785;28;20437;-70
2022/05/25 05:10:35;;;;;;;2.87;2.57;;;15.30;99.90;;;;;;4987435;28;20444;-71
2022/05/25 05:13:04;;;;;;;3.17;2.80;;;15.40;99.90;;;;;;4987072;28;20190;-71
2022/05/25 05:15:35;;;;;;;4.00;2.17;;;15.30;99.90;;;;;;4987209;28;20425;-71
2022/05/25 05:18:00;;;;;;;2.83;2.00;;;15.30;99.90;;;;;;4986234;28;20822;-71
2022/05/25 05:20:26;;;;;;;3.20;2.30;;;15.30;99.90;;;;;;4985778;28;20480;-72
2022/05/25 05:22:51;;;;;;;3.13;2.13;;;15.20;99.90;;;;;;4986527;28;20222;-72
2022/05/25 05:25:17;;;;;;;3.07;2.57;;;15.00;99.90;;;;;;4986869;28;20194;-71
2022/05/25 05:27:46;;;;;;;3.00;2.20;;;15.10;99.90;;;;;;4986938;28;20646;-70
2022/05/25 05:30:15;;;;;;;2.20;2.00;;;15.10;99.90;;;;;;4968363;28;20197;-71
2022/05/25 05:32:40;;;;;;;2.73;2.10;;;15.20;99.90;;;;;;4983917;28;20445;-69
2022/05/25 05:35:09;;;;;;;7.83;2.63;;;15.30;99.90;;;;;;4985250;28;20850;-69
2022/05/25 05:37:49;;;;;;;4.73;2.60;;;15.40;99.90;;;;;;4986107;28;20725;-71
2022/05/25 05:40:18;;;;;;;3.50;2.50;;;15.40;99.90;;;;;;4984643;28;20499;-69
2022/05/25 05:42:45;;;;;;;3.20;2.50;;;15.50;99.90;;;;;;4985281;28;20452;-70
2022/05/25 05:45:17;;;;;;;5.37;2.67;;;15.60;99.90;;;;;;4985366;28;20977;-70
2022/05/25 05:48:13;;;;;;;3.47;2.43;;;15.60;99.90;;;;;;4984211;28;20444;-70
2022/05/25 05:50:41;;;;;;;3.00;2.20;;;15.50;99.90;;;;;;4985712;28;20797;-71
2022/05/25 05:53:10;;;;;;;8.23;2.87;;;15.50;99.90;;;;;;4985903;28;20425;-70
2022/05/25 05:55:36;;;;;;;3.63;2.60;;;15.60;99.90;;;;;;4985989;28;20539;-71
2022/05/25 05:58:03;;;;;;;7.93;2.50;;;15.60;99.90;;;;;;4969957;28;20957;-71
2022/05/25 06:00:29;;;;;;;4.40;2.10;;;15.70;99.90;;;;;;4985716;28;20839;-71
2022/05/25 06:02:54;;;;;;;2.73;2.10;;;15.80;99.90;;;;;;4986088;28;20433;-71
2022/05/25 06:05:20;;;;;;;3.57;2.50;;;15.80;99.90;;;;;;4985398;28;20429;-71
2022/05/25 06:07:46;;;;;;;2.93;2.30;;;15.90;99.90;;;;;;4985394;28;20269;-70
2022/05/25 06:10:12;;;;;;;6.70;2.13;;;16.00;99.90;;;;;;4984544;28;20204;-71
2022/05/25 06:12:37;;;;;;;3.87;2.67;;;16.00;99.90;;;;;;4985874;28;20464;-72
2022/05/25 06:20:34;;;;;;;4.20;2.70;;;16.20;99.90;;;;;;4985766;28;20474;-70
2022/05/25 06:22:59;;;;;;;4.37;2.70;;;16.20;99.90;;;;;;4983034;28;20440;-70
2022/05/25 06:25:25;;;;;;;3.10;2.60;;;16.20;99.90;;;;;;4985668;28;20425;-70
2022/05/25 06:27:50;;;;;;;2.90;2.70;;;16.20;99.90;;;;;;4986336;28;20236;-70
2022/05/25 06:30:16;;;;;;;2.57;2.30;;;16.30;99.90;;;;;;4988170;28;20216;-70
2022/05/25 06:32:42;;;;;;;3.37;2.60;;;16.30;99.90;;;;;;4986478;28;20647;-71
2022/05/25 06:35:08;;;;;;;3.43;2.90;;;16.30;99.90;;;;;;4985021;28;20269;-72
2022/05/25 06:37:33;;;;;;;4.00;2.50;;;16.30;99.90;;;;;;4968851;28;20178;-72
2022/05/25 06:40:00;;;;;;;5.07;2.87;;;16.50;99.90;;;;;;4986887;28;20452;-71
2022/05/25 06:42:26;;;;;;;2.50;2.30;;;16.50;99.90;;;;;;4983576;28;20201;-71
2022/05/25 06:44:52;;;;;;;4.10;3.27;;;16.70;99.90;;;;;;4985335;28;20451;-71
2022/05/25 06:47:19;;;;;;;5.23;2.67;;;16.80;99.90;;;;;;4984985;28;20192;-71
2022/05/25 06:49:45;;;;;;;3.23;2.53;;;16.70;99.90;;;;;;4984563;28;20201;-71
2022/05/25 06:52:12;;;;;;;4.63;2.87;;;16.80;99.90;;;;;;4985935;28;20445;-71
2022/05/25 06:54:38;;;;;;;2.63;2.33;;;16.90;99.90;;;;;;4987764;28;20182;-71
2022/05/25 06:57:04;;;;;;;5.83;2.70;;;16.90;99.90;;;;;;4984914;28;20937;-72
2022/05/25 06:59:30;;;;;;;2.73;2.43;;;16.90;99.90;;;;;;4985826;28;20461;-71
2022/05/25 07:01:56;;;;;;;3.63;2.63;;;17.00;99.90;;;;;;4986987;28;20981;-69
2022/05/25 07:04:21;;;;;;;3.50;2.77;;;17.10;99.90;;;;;;4988089;28;20467;-70
2022/05/25 07:06:47;;;;;;;2.83;2.53;;;17.00;99.90;;;;;;4988194;28;20821;-70
2022/05/25 07:09:13;;;;;;;4.77;3.70;;;17.00;99.90;;;;;;4989501;28;20252;-70
2022/05/25 07:11:41;;;;;;;4.07;2.73;;;17.00;99.90;;;;;;4988940;28;20186;-72
2022/05/25 07:14:07;;;;;;;5.23;2.50;;;17.10;99.90;;;;;;4986687;28;20580;-73
2022/05/25 07:16:32;;;;;;;3.97;2.50;;;17.00;99.90;;;;;;4971867;28;20436;-71
2022/05/25 07:18:58;;;;;;;3.43;3.00;;;17.00;99.90;;;;;;4970030;28;20453;-72
2022/05/25 07:21:27;;;;;;;3.33;2.70;;;17.10;99.90;;;;;;4988114;28;20216;-71
2022/05/25 07:23:54;;;;;;;3.20;2.87;;;17.30;99.90;;;;;;4987769;28;20186;-68
2022/05/25 07:26:22;;;;;;;6.60;2.80;;;17.30;99.90;;;;;;4986427;28;20451;-70
2022/05/25 07:28:48;;;;;;;3.20;2.50;;;17.30;99.90;;;;;;4987344;28;20575;-70
2022/05/25 07:31:37;;;;;;;6.10;2.60;;;17.30;99.90;;;;;;4985999;28;20441;-71
2022/05/25 07:34:14;;;;;;;4.10;2.80;;;17.50;99.90;;;;;;4986552;28;20913;-70
2022/05/25 07:36:41;;;;;;;3.57;2.60;;;17.60;99.90;;;;;;4988752;28;20980;-73
2022/05/25 07:39:11;;;;;;;2.90;2.60;;;17.60;99.90;;;;;;4985490;28;20488;-73
2022/05/25 07:41:40;;;;;;;3.73;2.80;;;17.50;99.90;;;;;;4988074;28;20469;-69
2022/05/25 07:44:10;;;;;;;5.43;2.50;;;17.50;99.90;;;;;;4988244;28;20443;-68
2022/05/25 07:46:36;;;;;;;3.17;2.87;;;17.60;99.90;;;;;;4987795;28;20834;-70
2022/05/25 07:49:02;;;;;;;2.77;2.57;;;17.60;99.90;;;;;;4985641;28;20617;-69
2022/05/25 07:51:28;;;;;;;3.77;2.30;;;17.60;99.90;;;;;;4987345;28;20197;-69
2022/05/25 07:53:57;;;;;;;3.80;2.60;;;17.80;99.90;;;;;;4986334;28;20185;-70
2022/05/25 07:56:34;;;;;;;4.50;2.73;;;17.80;99.90;;;;;;4987207;28;20437;-70
2022/05/25 07:59:01;;;;;;;5.10;2.40;;;17.80;99.90;;;;;;4987118;28;21043;-69
2022/05/25 08:07:02;;;;;;;4.93;2.93;;;18.00;99.90;;;;;;4989503;28;20486;-71
2022/05/25 08:09:29;;;;;;;3.27;2.97;;;18.10;99.90;;;;;;4992643;28;20456;-71
2022/05/25 08:11:55;;;;;;;3.83;2.57;;;18.10;99.90;;;;;;4987327;28;20504;-70
2022/05/25 08:14:24;;;;;;;3.90;2.77;;;18.10;99.90;;;;;;4991159;28;20432;-72
2022/05/25 08:16:50;;;;;;;3.30;2.70;;;18.10;99.90;;;;;;4989901;28;20186;-71
2022/05/25 08:19:16;;;;;;;3.83;2.53;;;18.00;99.90;;;;;;4990962;28;20461;-69
2022/05/25 08:21:41;;;;;;;3.70;2.60;;;18.00;99.90;;;;;;4986291;28;20285;-71
2022/05/25 08:24:07;;;;;;;3.50;2.43;;;18.30;99.90;;;;;;4989112;28;20189;-71
2022/05/25 08:26:32;;;;;;;11.93;2.80;;;18.40;99.90;;;;;;4989522;28;20260;-73
2022/05/25 08:28:58;;;;;;;4.00;2.60;;;18.50;99.90;;;;;;4985838;28;20204;-73
2022/05/25 08:31:24;;;;;;;3.50;2.50;;;18.60;99.90;;;;;;4989380;28;20225;-69
2022/05/25 08:33:49;;;;;;;3.70;2.33;;;18.50;99.90;;;;;;4987122;28;20186;-70
2022/05/25 08:36:15;;;;;;;3.70;2.33;;;18.50;99.90;;;;;;4966337;28;20221;-71
2022/05/25 08:38:41;;;;;;;3.43;2.90;;;18.60;99.90;;;;;;4985539;28;20213;-72
2022/05/25 08:41:07;;;;;;;5.13;2.40;;;18.70;99.90;;;;;;4991523;28;20210;-71
2022/05/25 08:43:46;;;;;;;3.93;2.10;;;18.70;99.90;;;;;;4988222;28;20424;-71
2022/05/25 08:46:21;;;;;;;3.97;2.30;;;18.70;99.90;;;;;;4985752;28;20479;-72
2022/05/25 08:48:47;;;;;;;3.93;2.37;;;18.60;99.90;;;;;;4968306;28;20460;-71
2022/05/25 08:51:17;;;;;;;2.87;2.33;;;18.70;99.90;;;;;;4989990;28;20433;-70
2022/05/25 08:53:43;;;;;;;3.80;2.20;;;18.80;99.90;;;;;;4985705;28;20421;-67
2022/05/25 08:56:50;;;;;;;4.17;2.40;;;18.90;99.90;;;;;;4987342;28;20918;-68
2022/05/25 08:59:23;;;;;;;3.93;2.37;;;18.90;99.90;;;;;;4970531;28;20221;-70
2022/05/25 09:02:11;;;;;;;8.13;2.60;;;18.80;99.90;;;;;;4988319;28;20835;-69
2022/05/25 09:04:39;;;;;;;4.03;2.20;;;18.90;99.90;;;;;;4985381;28;21061;-70
2022/05/25 09:07:17;;;;;;;4.33;2.43;;;19.00;99.90;;;;;;4984295;28;20432;-70
2022/05/25 09:09:45;;;;;;;4.20;2.13;;;19.10;99.90;;;;;;4985201;28;20603;-70
2022/05/25 09:12:15;;;;;;;5.57;2.50;;;19.20;99.90;;;;;;4986738;28;20429;-70
2022/05/25 09:14:57;;;;;;;2.50;2.30;;;19.10;99.90;;;;;;4985033;28;20437;-69
2022/05/25 09:18:00;;;;;;;4.27;2.20;;;19.20;99.90;;;;;;4967347;28;22533;-72
2022/05/25 09:20:32;;;;;;;4.70;2.00;;;19.20;99.90;;;;;;4968311;28;21077;-69
2022/05/25 09:22:58;;;;;;;2.60;2.40;;;19.20;99.90;;;;;;4985237;28;20428;-70
2022/05/25 09:25:24;;;;;;;3.70;2.40;;;19.30;99.90;;;;;;4985015;28;20977;-70
2022/05/25 09:28:03;;;;;;;3.30;2.40;;;19.40;99.90;;;;;;4991152;28;20453;-70
2022/05/25 09:30:33;;;;;;;6.10;2.63;;;19.30;99.90;;;;;;4988318;28;21150;-70
2022/05/25 09:33:07;;;;;;;6.53;2.27;;;19.30;99.90;;;;;;4988062;28;20804;-69
2022/05/25 09:35:38;;;;;;;2.87;2.20;;;19.30;99.90;;;;;;4986617;28;20443;-70
2022/05/25 09:38:11;;;;;;;2.40;2.17;;;19.40;99.70;;;;;;4989945;28;20449;-70
2022/05/25 09:40:48;;;;;;;2.60;2.40;;;19.30;98.30;;;;;;4990700;28;20518;-70
2022/05/25 09:43:19;;;;;;;4.00;2.37;;;19.30;98.60;;;;;;4985748;28;20860;-70
2022/05/25 09:45:55;;;;;;;2.27;2.07;;;19.40;99.10;;;;;;4982196;28;20425;-71
2022/05/25 09:48:26;;;;;;;7.00;2.30;;;19.30;98.20;;;;;;4983097;28;20567;-71
2022/05/25 09:50:54;;;;;;;4.67;2.37;;;19.40;99.10;;;;;;4987450;28;20970;-71
2022/05/25 09:53:24;;;;;;;7.10;2.60;;;19.50;99.90;;;;;;4986001;28;20421;-71
2022/05/25 09:56:09;;;;;;;3.03;2.10;;;19.70;99.60;;;;;;4986036;28;20481;-71
2022/05/25 09:58:40;;;;;;;4.40;2.50;;;19.80;98.10;;;;;;4985533;28;20543;-71
2022/05/25 10:01:18;;;;;;;2.43;2.00;;;19.80;98.60;;;;;;4985526;28;20496;-71
2022/05/25 10:03:44;;;;;;;3.50;2.30;;;19.90;96.50;;;;;;4984840;28;20428;-71
2022/05/25 10:06:31;;;;;;;4.53;2.37;;;20.00;95.50;;;;;;4986586;28;20520;-71
2022/05/25 10:09:06;;;;;;;3.27;2.50;;;20.10;95.60;;;;;;4984189;28;20450;-71
2022/05/25 10:11:57;;;;;;;11.77;2.47;;;20.10;96.00;;;;;;4985072;28;20444;-72
2022/05/25 10:14:32;;;;;;;4.03;2.37;;;20.30;96.40;;;;;;4985130;28;20475;-72
2022/05/25 10:17:05;;;;;;;2.30;2.10;;;20.10;95.70;;;;;;4988754;28;20965;-69
2022/05/25 10:19:34;;;;;;;2.37;2.00;;;20.10;96.60;;;;;;4991036;28;20524;-69
2022/05/25 10:22:00;;;;;;;2.67;2.20;;;20.20;96.80;;;;;;4986088;28;20504;-70
2022/05/25 10:24:28;;;;;;;5.03;2.63;;;20.30;96.40;;;;;;4972577;28;20551;-69
2022/05/25 10:27:04;;;;;;;4.47;2.27;;;20.50;96.80;;;;;;4991120;28;20449;-70
2022/05/25 10:38:29;;;;;;;3.40;2.43;;;20.70;94.50;;;;;;4988232;28;20538;-71
2022/05/25 10:40:57;;;;;;;4.03;2.20;;;20.70;92.40;;;;;;4974208;28;20803;-71
2022/05/25 10:43:26;;;;;;;2.33;2.03;;;20.80;93.40;;;;;;4988198;28;20463;-70
2022/05/25 10:45:54;;;;;;;4.07;2.33;;;20.60;91.70;;;;;;4979745;28;20455;-70
2022/05/25 10:48:46;;;;;;;3.37;2.03;;;20.60;91.20;;;;;;4986149;28;20528;-70
2022/05/25 10:51:28;;;;;;;4.30;2.10;;;20.70;89.90;;;;;;4989804;28;20428;-73
2022/05/25 10:57:04;;;;;;;2.50;2.20;;;20.80;86.60;;;;;;4986226;28;20544;-70
2022/05/25 11:00:12;;;;;;;3.00;2.40;;;21.00;86.50;;;;;;4989105;28;20456;-69
2022/05/25 11:02:53;;;;;;;4.10;3.23;;;21.00;89.30;;;;;;4969409;28;20472;-72
2022/05/25 11:05:45;;;;;;;2.77;2.07;;;21.00;87.20;;;;;;4988031;28;20452;-70
2022/05/25 11:08:26;;;;;;;3.40;2.63;;;21.20;87.60;;;;;;4987369;28;20820;-70
2022/05/25 11:11:24;;;;;;;2.50;2.10;;;21.30;84.20;;;;;;4990267;28;20468;-70
2022/05/25 11:13:56;;;;;;;2.67;1.80;;;21.20;82.60;;;;;;4988320;28;20456;-70
2022/05/25 11:16:33;;;;;;;2.50;2.30;;;21.10;83.30;;;;;;4988193;28;20437;-70
2022/05/25 11:19:35;;;;;;;2.63;2.37;;;21.30;83.80;;;;;;4989119;28;20448;-69
2022/05/25 11:22:16;;;;;;;3.20;2.13;;;21.50;81.60;;;;;;4990635;28;20827;-69
2022/05/25 11:24:59;;;;;;;3.03;2.10;;;21.60;82.70;;;;;;4983805;28;20923;-70
2022/05/25 11:27:40;;;;;;;4.00;2.10;;;21.70;80.60;;;;;;4971098;28;20483;-69
2022/05/25 11:30:26;;;;;;;2.40;2.10;;;21.80;79.50;;;;;;4972842;28;20483;-71
2022/05/25 11:33:32;;;;;;;3.90;3.43;;;21.80;80.70;;;;;;4986754;28;20799;-71
2022/05/25 11:36:44;;;;;;;4.70;4.20;;;22.00;80.00;;;;;;4979411;28;20450;-69
2022/05/25 11:39:39;;;;;;;5.10;2.00;;;22.30;77.20;;;;;;4968347;28;20909;-71
2022/05/25 11:42:42;;;;;;;2.70;2.10;;;22.40;75.10;;;;;;4956383;28;20480;-71
2022/05/25 11:45:17;;;;;;;2.20;2.00;;;22.60;72.10;;;;;;4979667;28;20531;-70
2022/05/25 11:47:52;;;;;;;2.17;1.90;;;22.70;72.50;;;;;;4985802;28;20432;-71
2022/05/25 11:50:28;;;;;;;2.27;2.07;;;22.80;71.30;;;;;;4988973;28;20484;-72
2022/05/25 11:53:22;;;;;;;2.53;1.80;;;22.90;69.70;;;;;;4986341;28;20822;-72
2022/05/25 11:55:59;;;;;;;2.60;2.10;;;23.20;69.80;;;;;;4987457;28;20540;-72
2022/05/25 11:59:04;;;;;;;2.90;1.87;;;23.90;70.00;;;;;;4987611;28;20444;-72
2022/05/25 12:01:45;;;;;;;2.60;2.10;;;24.50;67.40;;;;;;4950143;28;20470;-72
2022/05/25 12:04:26;;;;;;;4.47;2.00;;;26.30;64.30;;;;;;4986195;28;20472;-72
2022/05/25 12:07:19;;;;;;;3.63;2.30;;;27.20;59.90;;;;;;4986140;28;20571;-72
2022/05/25 12:10:04;;;;;;;2.37;2.00;;;27.90;57.30;;;;;;4985053;28;20471;-72
2022/05/25 12:12:46;;;;;;;2.30;2.10;;;29.30;55.60;;;;;;4992017;28;20476;-72
2022/05/25 12:15:21;;;;;;;2.80;2.03;;;30.50;51.50;;;;;;4986007;28;20463;-70
2022/05/25 12:18:30;;;;;;;2.63;2.20;;;28.70;49.30;;;;;;4992158;28;20429;-72
2022/05/25 12:21:16;;;;;;;3.30;2.00;;;29.90;50.30;;;;;;4992111;28;20427;-72
2022/05/25 12:23:50;;;;;;;2.27;2.00;;;30.60;47.60;;;;;;4990099;28;20445;-72
2022/05/25 12:26:25;;;;;;;2.70;2.13;;;30.70;47.40;;;;;;4993583;28;20404;-72
2022/05/25 12:28:52;;;;;;;2.63;2.07;;;31.80;46.30;;;;;;4987822;28;20498;-71
2022/05/25 12:31:28;;;;;;;5.97;1.90;;;32.70;44.60;;;;;;4990613;28;21145;-71
2022/05/25 12:33:54;;;;;;;3.60;2.20;;;32.10;43.60;;;;;;4987599;28;20521;-71
2022/05/25 12:36:21;;;;;;;2.73;2.00;;;30.60;44.50;;;;;;4987314;28;20464;-71
2022/05/25 12:38:47;;;;;;;2.77;1.90;;;30.30;45.20;;;;;;4986969;28;20240;-71
2022/05/25 12:41:29;;;;;;;2.13;1.90;;;30.80;44.80;;;;;;4988543;28;20535;-71
2022/05/25 12:48:30;;;;;;;1.97;1.87;;;31.40;43.60;;;;;;4988072;28;20417;-71
2022/05/25 12:49:58;;;;;;;2.33;1.90;;;32.10;41.80;;;;;;4988228;28;20858;-72
2022/05/25 12:52:38;;;;;;;2.40;2.00;;;29.70;41.70;;;;;;4993306;28;20436;-71
2022/05/25 12:55:13;;;;;;;5.10;2.30;;;28.30;44.00;;;;;;4988231;28;20571;-70
2022/05/25 12:57:50;;;;;;;2.00;1.80;;;27.90;44.40;;;;;;4988088;28;20440;-71
2022/05/25 13:00:22;;;;;;;2.20;2.00;;;26.30;45.70;;;;;;4986361;28;21388;-71
2022/05/25 13:02:49;;;;;;;2.97;2.50;;;26.60;46.80;;;;;;4980789;28;21184;-71
2022/05/25 13:05:52;;;;;;;2.33;2.07;;;27.50;46.60;;;;;;4983929;28;20779;-70
2022/05/25 13:08:45;;;;;;;3.60;2.43;;;28.60;44.20;;;;;;4984429;28;20425;-70
2022/05/25 13:11:30;;;;;;;2.03;1.83;;;28.90;44.00;;;;;;4982939;28;20456;-71
2022/05/25 13:13:58;;;;;;;2.63;2.20;;;30.10;44.50;;;;;;4980997;28;20455;-70
2022/05/25 13:17:03;;;;;;;2.73;2.10;;;31.00;43.70;;;;;;4982245;28;20487;-71
2022/05/25 13:19:39;;;;;;;3.30;2.10;;;32.00;41.80;;;;;;4984114;28;20805;-71
2022/05/25 13:22:22;;;;;;;2.57;1.77;;;31.20;42.10;;;;;;4979097;28;20447;-71
2022/05/25 13:25:03;;;;;;;2.93;2.53;;;31.50;42.40;;;;;;4981024;28;20518;-71
2022/05/25 13:27:47;;;;;;;4.00;2.00;;;30.20;42.10;;;;;;4981862;28;20434;-70
2022/05/25 13:30:39;;;;;;;2.50;2.30;;;29.80;43.10;;;;;;4983914;28;20448;-70
2022/05/25 13:33:19;;;;;;;4.83;2.30;;;29.40;42.80;;;;;;4981782;28;20407;-69
2022/05/25 13:35:56;;;;;;;3.40;2.70;;;27.80;43.90;;;;;;4978813;28;20445;-71
2022/05/25 13:38:35;;;;;;;6.57;2.50;;;27.30;45.30;;;;;;4980096;28;20424;-70
2022/05/25 13:41:09;;;;;;;3.73;2.00;;;28.30;45.90;;;;;;4984262;28;20542;-69
2022/05/25 13:43:49;;;;;;;2.47;2.27;;;27.40;45.00;;;;;;4983070;28;20815;-70
2022/05/25 13:46:52;;;;;;;4.30;2.30;;;26.70;45.80;;;;;;4983077;28;20831;-70
2022/05/25 13:49:38;;;;;;;2.17;1.97;;;28.20;46.50;;;;;;4948186;28;20480;-70